Flight Briefing for CPX320

Departure Arrival
Chicago/Rockford International Airport (KRFD)
Click to view FAA NOTAMS
Kansas City International Airport (KMCI)
Click to view FAA NOTAMS
Departure Time Arrival Time
N/A N/A
Aircraft Distance
B767-300BDSF 309nm
Departure METAR Arrival METAR
KRFD 232254Z 27008KT 10SM FEW250 23/11 A3006 RMK AO2 SLP177 T02280111 KMCI 232253Z 07008KT 10SM OVC026 23/16 A3004 RMK AO2 SLP165 T02280156
Suggested Route
PLL MZV J232 IRK BQS4


View recent IFR Routes data
Notes



Charts and Procedures

Charts for KRFD
No chart available
Charts for KMCI
No chart available

Windy.com Weather Map